Time;durP1;ratioP1;P1;durP2;ratioP2;P2;SDS_P1;SDS_P2;PMS_P1;PMS_P2;Temp;Humidity;BMP_temperature;BMP_pressure;BME280_temperature;BME280_humidity;BME280_pressure;Samples;Min_cycle;Max_cycle;Signal;HPM_P1;HPM_P2
2021/03/15 00:00:11;;;;;;;1.53;0.50;;;4.60;96.80;;;;;;5062381;28;20831;-74
2021/03/15 00:02:39;;;;;;;4.30;0.80;;;4.60;96.70;;;;;;5060123;28;20047;-74
2021/03/15 00:05:09;;;;;;;1.80;0.57;;;4.60;96.70;;;;;;5040177;28;20098;-73
2021/03/15 00:07:35;;;;;;;1.47;0.40;;;4.60;96.80;;;;;;5065072;28;20040;-73
2021/03/15 00:10:03;;;;;;;3.13;0.60;;;4.60;96.80;;;;;;5043445;28;20036;-73
2021/03/15 00:12:29;;;;;;;3.07;0.60;;;4.60;96.80;;;;;;5048134;28;20036;-73
2021/03/15 00:14:55;;;;;;;3.93;0.77;;;4.60;96.90;;;;;;5062735;28;20036;-73
2021/03/15 00:17:21;;;;;;;2.23;0.70;;;4.60;96.80;;;;;;5028140;28;20075;-72
2021/03/15 00:19:47;;;;;;;2.57;0.90;;;4.60;96.90;;;;;;5062262;28;20507;-72
2021/03/15 00:22:13;;;;;;;1.77;0.73;;;4.60;97.00;;;;;;5045859;28;20045;-73
2021/03/15 00:24:39;;;;;;;4.07;1.07;;;4.60;97.00;;;;;;5065987;28;20040;-73
2021/03/15 00:27:05;;;;;;;2.80;0.90;;;4.60;97.00;;;;;;5028770;28;20101;-72
2021/03/15 00:29:31;;;;;;;3.67;0.90;;;4.60;97.10;;;;;;5059229;28;20041;-72
2021/03/15 00:31:57;;;;;;;3.53;1.00;;;4.70;97.20;;;;;;5030303;28;20036;-74
2021/03/15 00:34:23;;;;;;;4.20;1.10;;;4.60;97.10;;;;;;5016153;28;20037;-73
2021/03/15 00:36:49;;;;;;;3.90;1.20;;;4.60;97.10;;;;;;5036777;28;20033;-72
2021/03/15 00:39:15;;;;;;;3.63;1.13;;;4.70;97.20;;;;;;5046416;28;20037;-72
2021/03/15 00:41:41;;;;;;;4.73;2.23;;;4.70;97.20;;;;;;5045096;28;20488;-71
2021/03/15 00:44:08;;;;;;;4.57;1.43;;;4.70;97.10;;;;;;5050433;28;20139;-72
2021/03/15 00:46:35;;;;;;;6.33;1.33;;;4.70;97.00;;;;;;5033222;28;20033;-72
2021/03/15 00:49:02;;;;;;;7.37;1.60;;;4.80;97.10;;;;;;5044501;28;20084;-72
2021/03/15 00:51:28;;;;;;;2.50;1.23;;;4.80;97.10;;;;;;5041785;28;20048;-72
2021/03/15 00:53:54;;;;;;;2.17;1.20;;;4.70;97.10;;;;;;5012543;28;20724;-71
2021/03/15 00:56:20;;;;;;;3.43;1.60;;;4.70;97.10;;;;;;5042366;28;20067;-71
2021/03/15 00:58:46;;;;;;;5.07;1.40;;;4.70;97.10;;;;;;5011982;28;20514;-72
2021/03/15 01:01:19;;;;;;;4.33;1.33;;;4.70;97.10;;;;;;5001705;28;20144;-72
2021/03/15 01:03:45;;;;;;;2.67;1.10;;;4.70;97.20;;;;;;5040306;28;20040;-72
2021/03/15 01:06:13;;;;;;;3.60;1.20;;;4.70;97.10;;;;;;5031919;28;20047;-72
2021/03/15 01:08:40;;;;;;;3.33;1.10;;;4.60;97.10;;;;;;5024343;28;20514;-72
2021/03/15 01:11:06;;;;;;;2.27;0.90;;;4.60;97.10;;;;;;5040112;28;20040;-72
2021/03/15 01:13:32;;;;;;;3.03;1.10;;;4.60;97.10;;;;;;5033809;28;20116;-72
2021/03/15 01:15:58;;;;;;;1.60;0.70;;;4.60;97.10;;;;;;5027121;28;20428;-72
2021/03/15 01:18:24;;;;;;;3.03;0.90;;;4.70;97.20;;;;;;5042772;28;20091;-72
2021/03/15 01:20:50;;;;;;;1.67;0.80;;;4.70;97.20;;;;;;5032704;28;20053;-72
2021/03/15 01:23:16;;;;;;;3.17;0.90;;;4.60;97.10;;;;;;5023583;28;20570;-72
2021/03/15 01:25:43;;;;;;;2.00;0.90;;;4.60;97.10;;;;;;5046487;28;20481;-73
2021/03/15 01:28:10;;;;;;;3.80;1.10;;;4.60;97.10;;;;;;5025034;28;20178;-73
2021/03/15 01:30:37;;;;;;;3.73;1.10;;;4.60;97.10;;;;;;5029330;28;20106;-74
2021/03/15 01:33:04;;;;;;;2.53;0.83;;;4.60;97.10;;;;;;5027190;28;20043;-73
2021/03/15 01:35:31;;;;;;;1.83;0.77;;;4.60;97.10;;;;;;5042972;28;20041;-73
2021/03/15 01:37:57;;;;;;;3.43;1.00;;;4.60;97.10;;;;;;5025199;28;20037;-73
2021/03/15 01:40:23;;;;;;;3.27;0.90;;;4.50;97.00;;;;;;5047255;28;20087;-73
2021/03/15 01:42:56;;;;;;;1.80;0.87;;;4.60;97.00;;;;;;5048055;28;20037;-72
2021/03/15 01:45:22;;;;;;;3.43;1.10;;;4.50;97.00;;;;;;5017105;28;20088;-75
2021/03/15 01:47:49;;;;;;;2.90;1.07;;;4.50;97.00;;;;;;5050049;28;20064;-75
2021/03/15 01:50:16;;;;;;;1.83;1.00;;;4.50;97.00;;;;;;5037042;28;20035;-77
2021/03/15 01:52:43;;;;;;;3.73;1.50;;;4.50;97.10;;;;;;5054998;28;20040;-75
2021/03/15 01:55:11;;;;;;;3.90;1.07;;;4.50;97.10;;;;;;5045024;28;20497;-75
2021/03/15 01:57:37;;;;;;;4.97;1.53;;;4.50;97.10;;;;;;5033616;28;20041;-75
2021/03/15 02:00:07;;;;;;;3.77;1.27;;;4.40;97.00;;;;;;5045962;28;20751;-74
2021/03/15 02:02:39;;;;;;;;;;;4.40;97.00;;;;;;5047454;28;20095;-75
2021/03/15 02:05:06;;;;;;;2.13;1.02;;;4.30;96.80;;;;;;5045122;28;19935;-75
2021/03/15 02:07:32;;;;;;;4.17;1.20;;;4.20;96.90;;;;;;5048039;28;20029;-74
2021/03/15 02:10:01;;;;;;;4.17;1.13;;;4.20;97.00;;;;;;5037381;28;20040;-75
2021/03/15 02:12:49;;;;;;;5.23;1.33;;;4.20;97.10;;;;;;5031762;28;20043;-75
2021/03/15 02:15:34;;;;;;;4.10;1.13;;;4.20;97.20;;;;;;5050709;28;20048;-75
2021/03/15 02:18:24;;;;;;;3.27;0.97;;;4.20;97.20;;;;;;5040560;28;20029;-74
2021/03/15 02:21:05;;;;;;;3.47;1.30;;;4.20;97.20;;;;;;5047822;28;20090;-74
2021/03/15 02:23:34;;;;;;;;;;;4.30;97.20;;;;;;5043848;28;20037;-75
2021/03/15 02:26:26;;;;;;;6.73;1.60;;;4.30;97.30;;;;;;5045268;28;19936;-75
2021/03/15 02:29:24;;;;;;;4.90;1.47;;;4.30;97.30;;;;;;5043395;28;20091;-75
2021/03/15 02:32:12;;;;;;;6.03;1.97;;;4.30;97.30;;;;;;5043048;28;20033;-75
2021/03/15 02:34:52;;;;;;;4.90;1.53;;;4.30;97.30;;;;;;5041734;28;20049;-75
2021/03/15 02:37:26;;;;;;;3.35;1.65;;;4.30;97.30;;;;;;5027509;28;20045;-76
2021/03/15 02:39:56;;;;;;;5.57;1.97;;;4.40;97.30;;;;;;5028325;28;20131;-75
2021/03/15 02:42:24;;;;;;;5.20;1.60;;;4.40;97.40;;;;;;5043335;28;20052;-75
2021/03/15 02:44:54;;;;;;;7.23;1.80;;;4.30;97.30;;;;;;5046150;28;20071;-76
2021/03/15 02:47:28;;;;;;;5.77;2.00;;;4.30;97.20;;;;;;5042208;28;20122;-73
2021/03/15 02:50:01;;;;;;;6.97;1.90;;;4.30;97.10;;;;;;5021971;28;20116;-73
2021/03/15 02:52:28;;;;;;;8.07;1.97;;;4.20;97.00;;;;;;5027797;28;20132;-75
2021/03/15 02:54:55;;;;;;;5.23;2.03;;;4.10;97.00;;;;;;5006145;28;20041;-75
2021/03/15 02:57:22;;;;;;;4.57;2.00;;;4.10;97.00;;;;;;5042533;28;20037;-76
2021/03/15 02:59:52;;;;;;;6.40;1.90;;;3.90;97.30;;;;;;5031997;28;20068;-76
2021/03/15 03:02:19;;;;;;;5.28;1.67;;;3.90;97.10;;;;;;5044182;28;20491;-76
2021/03/15 03:04:48;;;;;;;6.63;1.93;;;3.80;97.10;;;;;;5018812;28;20029;-75
2021/03/15 03:07:17;;;;;;;8.70;2.10;;;3.80;97.10;;;;;;5020050;28;20052;-76
2021/03/15 03:09:43;;;;;;;5.23;2.20;;;3.70;97.10;;;;;;5024824;28;20115;-76
2021/03/15 03:12:12;;;;;;;7.97;2.40;;;3.70;97.20;;;;;;5042403;28;20120;-76
2021/03/15 03:14:40;;;;;;;9.70;2.30;;;3.70;97.20;;;;;;5016726;28;20094;-76
2021/03/15 03:17:08;;;;;;;9.87;2.77;;;3.70;97.40;;;;;;5037461;28;20487;-76
2021/03/15 03:19:37;;;;;;;6.47;2.70;;;3.70;97.40;;;;;;5027724;28;20037;-76
2021/03/15 03:22:04;;;;;;;6.17;2.50;;;3.70;97.40;;;;;;5042922;28;20052;-76
2021/03/15 03:24:33;;;;;;;7.90;2.50;;;3.70;97.40;;;;;;5018142;28;20049;-76
2021/03/15 03:27:01;;;;;;;10.60;3.03;;;3.80;97.50;;;;;;5048351;28;20111;-76
2021/03/15 03:29:28;;;;;;;7.90;3.33;;;3.80;97.50;;;;;;5031162;28;20044;-76
2021/03/15 03:31:57;;;;;;;8.00;3.00;;;3.70;97.50;;;;;;5056788;28;20086;-76
2021/03/15 03:34:23;;;;;;;10.10;3.43;;;3.80;97.60;;;;;;5052763;28;20044;-76
2021/03/15 03:36:49;;;;;;;11.10;3.53;;;3.80;97.60;;;;;;5059991;28;20032;-76
2021/03/15 03:39:15;;;;;;;11.43;3.70;;;3.80;97.80;;;;;;5032026;28;20063;-76
2021/03/15 03:41:41;;;;;;;11.73;3.90;;;3.90;97.90;;;;;;5064257;28;20044;-76
2021/03/15 03:44:09;;;;;;;10.87;3.47;;;3.90;98.00;;;;;;5051777;28;20041;-76
2021/03/15 03:46:34;;;;;;;11.40;3.93;;;4.00;98.00;;;;;;5047260;28;20040;-77
2021/03/15 03:49:01;;;;;;;10.83;3.50;;;4.00;98.10;;;;;;5051408;28;20090;-75
2021/03/15 03:51:32;;;;;;;11.37;4.17;;;4.10;98.10;;;;;;5032020;28;20047;-75
2021/03/15 03:54:24;;;;;;;;;;;4.10;98.00;;;;;;5064368;28;20527;-75
2021/03/15 03:57:05;;;;;;;12.27;3.73;;;4.10;97.90;;;;;;5041924;28;19921;-74
2021/03/15 03:59:34;;;;;;;12.10;4.30;;;4.10;98.00;;;;;;5056007;28;20056;-75
2021/03/15 04:02:02;;;;;;;17.47;4.83;;;4.10;98.00;;;;;;5043253;28;20071;-75
2021/03/15 04:04:33;;;;;;;15.13;4.40;;;4.10;98.00;;;;;;5043727;28;20037;-75
2021/03/15 04:07:01;;;;;;;16.77;4.60;;;4.10;98.00;;;;;;5038918;28;20124;-75
2021/03/15 04:09:31;;;;;;;14.93;5.30;;;4.10;97.90;;;;;;5042697;28;20059;-75
2021/03/15 04:12:04;;;;;;;15.60;5.23;;;4.00;97.90;;;;;;5060478;28;20037;-75
2021/03/15 04:14:38;;;;;;;21.17;6.13;;;4.10;98.00;;;;;;5047565;28;20049;-76
2021/03/15 04:17:05;;;;;;;16.90;5.97;;;4.10;98.10;;;;;;5062709;28;20040;-75
2021/03/15 04:19:41;;;;;;;17.80;5.23;;;4.10;98.10;;;;;;5067046;28;20047;-75
2021/03/15 04:22:10;;;;;;;23.57;6.17;;;4.10;98.10;;;;;;5039127;28;20060;-75
2021/03/15 04:24:39;;;;;;;19.87;5.17;;;4.20;98.50;;;;;;5064816;28;20085;-76
2021/03/15 04:27:06;;;;;;;17.40;5.60;;;4.20;98.20;;;;;;5044589;28;20536;-75
2021/03/15 04:29:33;;;;;;;15.47;5.17;;;4.10;98.10;;;;;;5039190;28;20607;-75
2021/03/15 04:32:01;;;;;;;15.73;5.97;;;4.20;98.20;;;;;;5035671;28;20116;-75
2021/03/15 04:34:30;;;;;;;17.00;5.30;;;4.20;98.20;;;;;;5021767;28;20557;-76
2021/03/15 04:36:58;;;;;;;19.13;6.57;;;4.30;98.20;;;;;;5033654;28;20277;-75
2021/03/15 04:39:30;;;;;;;21.57;6.93;;;4.20;98.20;;;;;;5020881;28;20038;-76
2021/03/15 04:41:57;;;;;;;21.53;6.10;;;4.10;98.20;;;;;;5046243;28;20043;-75
2021/03/15 04:44:24;;;;;;;20.33;6.50;;;4.20;98.20;;;;;;5038256;28;20127;-75
2021/03/15 04:46:52;;;;;;;19.37;5.97;;;4.20;98.20;;;;;;5042796;28;20034;-75
2021/03/15 04:49:19;;;;;;;20.47;6.60;;;4.10;98.20;;;;;;5028789;28;20049;-76
2021/03/15 04:51:45;;;;;;;22.97;6.87;;;4.10;98.20;;;;;;5025324;28;20037;-76
2021/03/15 04:54:11;;;;;;;22.60;6.27;;;4.10;98.20;;;;;;5025526;28;20420;-75
2021/03/15 04:56:38;;;;;;;21.50;6.30;;;4.10;98.20;;;;;;5039306;28;20029;-76
2021/03/15 04:59:08;;;;;;;18.60;7.07;;;4.10;98.30;;;;;;5034383;28;20049;-76
2021/03/15 05:01:36;;;;;;;17.80;5.77;;;4.10;98.30;;;;;;5042489;28;20076;-73
2021/03/15 05:04:08;;;;;;;23.17;6.83;;;4.10;98.30;;;;;;5016478;28;20061;-73
2021/03/15 05:06:36;;;;;;;22.97;6.60;;;4.20;98.40;;;;;;5026471;28;20056;-73
2021/03/15 05:09:06;;;;;;;21.27;6.77;;;4.20;98.40;;;;;;5039828;28;20543;-73
2021/03/15 05:11:33;;;;;;;25.67;6.33;;;4.20;98.40;;;;;;5035164;28;20049;-72
2021/03/15 05:14:00;;;;;;;22.87;6.37;;;4.20;98.40;;;;;;5023525;28;20522;-73
2021/03/15 05:16:35;;;;;;;23.10;6.30;;;4.20;98.50;;;;;;5014877;28;20077;-73
2021/03/15 05:19:03;;;;;;;23.03;6.47;;;4.30;98.50;;;;;;5026459;28;20037;-74
2021/03/15 05:21:31;;;;;;;20.57;6.20;;;4.30;98.50;;;;;;5023141;28;20044;-73
2021/03/15 05:23:58;;;;;;;22.67;6.17;;;4.30;98.50;;;;;;5034382;28;20069;-74
2021/03/15 05:26:25;;;;;;;23.30;6.17;;;4.30;98.40;;;;;;5048400;28;20519;-76
2021/03/15 05:28:52;;;;;;;22.03;5.60;;;4.30;98.40;;;;;;5025094;28;20048;-77
2021/03/15 05:31:23;;;;;;;21.47;5.83;;;4.20;98.40;;;;;;5060809;28;20056;-77
2021/03/15 05:33:51;;;;;;;19.63;6.13;;;4.20;98.40;;;;;;5056800;28;20072;-77
2021/03/15 05:36:17;;;;;;;34.53;5.93;;;4.20;98.40;;;;;;5030604;28;20167;-77
2021/03/15 05:38:44;;;;;;;22.27;6.30;;;4.20;98.40;;;;;;5041785;28;20056;-77
2021/03/15 05:41:13;;;;;;;26.07;5.40;;;4.20;98.50;;;;;;5046084;28;20044;-77
2021/03/15 05:44:21;;;;;;;20.17;4.93;;;4.30;98.50;;;;;;5049410;28;20045;-77
2021/03/15 05:47:20;;;;;;;29.03;4.63;;;4.30;98.50;;;;;;5065633;28;20036;-77
2021/03/15 05:49:52;;;;;;;21.57;4.17;;;4.30;98.50;;;;;;5062585;28;20040;-76
2021/03/15 05:52:21;;;;;;;17.77;4.17;;;4.30;98.40;;;;;;5067992;28;20049;-77
2021/03/15 05:55:18;;;;;;;20.40;4.57;;;4.20;98.40;;;;;;5059173;28;20033;-76
2021/03/15 05:58:08;;;;;;;24.37;3.73;;;4.20;98.40;;;;;;5082387;28;20037;-77
2021/03/15 06:00:52;;;;;;;15.68;3.55;;;4.20;98.40;;;;;;5063184;28;20064;-77
2021/03/15 06:03:47;;;;;;;32.80;5.00;;;4.20;98.40;;;;;;5039496;28;20124;-78
2021/03/15 06:06:19;;;;;;;22.57;4.40;;;4.20;98.40;;;;;;5065021;28;20037;-77
2021/03/15 06:08:47;;;;;;;20.37;4.10;;;4.20;98.40;;;;;;5049850;28;20115;-75
2021/03/15 06:11:20;;;;;;;27.17;3.30;;;4.20;98.30;;;;;;5058074;28;20045;-76
2021/03/15 06:13:47;;;;;;;21.73;3.25;;;4.20;98.30;;;;;;5066921;28;20121;-76
2021/03/15 06:16:15;;;;;;;19.40;2.77;;;4.20;98.30;;;;;;5059871;28;20480;-76
2021/03/15 06:18:41;;;;;;;24.10;4.20;;;4.20;98.40;;;;;;5049648;28;20511;-76
2021/03/15 06:21:11;;;;;;;21.30;3.70;;;4.20;98.40;;;;;;5061067;28;20067;-76
2021/03/15 06:23:41;;;;;;;24.42;4.00;;;4.30;98.30;;;;;;5067928;28;20041;-77
2021/03/15 06:26:11;;;;;;;21.97;4.03;;;4.30;98.20;;;;;;5043640;28;20832;-77
2021/03/15 06:28:37;;;;;;;18.57;3.00;;;4.30;98.10;;;;;;5040582;28;20045;-77
2021/03/15 06:31:04;;;;;;;22.80;2.87;;;4.30;98.10;;;;;;5032616;28;20114;-76
2021/03/15 06:33:30;;;;;;;20.50;3.07;;;4.30;98.10;;;;;;5046850;28;20041;-76
2021/03/15 06:36:15;;;;;;;26.97;4.83;;;4.40;98.10;;;;;;5038299;28;20036;-76
2021/03/15 06:38:43;;;;;;;27.60;4.37;;;4.40;98.00;;;;;;5040570;28;20045;-76
2021/03/15 06:41:10;;;;;;;18.30;2.77;;;4.40;97.90;;;;;;5042647;28;20037;-76
2021/03/15 06:43:36;;;;;;;25.50;3.13;;;4.60;98.00;;;;;;5041411;28;20040;-76
2021/03/15 06:46:02;;;;;;;31.00;4.10;;;4.60;98.10;;;;;;5026454;28;20025;-77
2021/03/15 06:48:29;;;;;;;25.60;3.50;;;4.60;98.10;;;;;;5023574;28;20118;-76
2021/03/15 06:50:56;;;;;;;24.63;4.10;;;4.80;98.00;;;;;;5042493;28;20040;-75
2021/03/15 06:53:23;;;;;;;24.73;4.13;;;4.80;97.80;;;;;;5040230;28;20059;-76
2021/03/15 06:55:53;;;;;;;21.67;3.80;;;4.90;97.80;;;;;;5044087;28;20048;-76
2021/03/15 06:58:31;;;;;;;27.10;3.47;;;4.90;97.70;;;;;;5038611;28;20057;-75
2021/03/15 07:01:15;;;;;;;22.80;3.00;;;5.00;97.70;;;;;;5040390;28;20059;-76
2021/03/15 07:03:42;;;;;;;21.87;3.83;;;5.10;97.50;;;;;;5037375;28;20105;-77
2021/03/15 07:06:09;;;;;;;24.07;4.30;;;5.10;97.40;;;;;;5042744;28;20041;-76
2021/03/15 07:08:36;;;;;;;22.43;3.63;;;5.10;97.60;;;;;;5039188;28;20156;-76
2021/03/15 07:11:02;;;;;;;31.30;5.07;;;5.10;97.20;;;;;;5043064;28;20052;-76
2021/03/15 07:13:38;;;;;;;24.70;3.60;;;5.20;97.20;;;;;;5043661;28;20095;-76
2021/03/15 07:16:04;;;;;;;28.57;3.83;;;5.30;97.00;;;;;;5043016;28;20097;-76
2021/03/15 07:18:35;;;;;;;22.83;4.00;;;5.30;97.00;;;;;;5043483;28;20048;-76
2021/03/15 07:21:05;;;;;;;;;;;5.30;97.00;;;;;;5012884;28;20524;-76
2021/03/15 07:23:40;;;;;;;23.07;5.33;;;5.40;96.80;;;;;;5018470;28;19925;-76
2021/03/15 07:26:19;;;;;;;24.47;3.60;;;5.40;96.80;;;;;;5042878;28;20335;-76
2021/03/15 07:28:46;;;;;;;17.97;3.97;;;5.40;96.90;;;;;;5042422;28;20399;-76
2021/03/15 07:31:32;;;;;;;23.00;3.53;;;5.50;96.80;;;;;;5044519;28;20080;-76
2021/03/15 07:33:58;;;;;;;26.23;3.53;;;5.50;96.90;;;;;;5041260;28;20052;-76
2021/03/15 07:36:28;;;;;;;26.50;4.70;;;5.50;96.90;;;;;;5046595;28;20049;-76
2021/03/15 07:38:55;;;;;;;30.02;6.57;;;5.50;96.90;;;;;;5039721;28;20087;-76
2021/03/15 07:41:22;;;;;;;23.57;3.67;;;5.60;96.80;;;;;;5043525;28;20033;-76
2021/03/15 07:43:49;;;;;;;23.97;3.37;;;5.70;96.90;;;;;;5022018;28;20488;-76
2021/03/15 07:46:26;;;;;;;19.13;3.63;;;5.70;96.80;;;;;;5014791;28;20124;-76
2021/03/15 07:48:54;;;;;;;26.57;3.97;;;5.80;96.90;;;;;;5023605;28;20072;-76
2021/03/15 07:51:32;;;;;;;21.20;3.33;;;5.80;96.80;;;;;;5042651;28;20045;-76
2021/03/15 07:54:09;;;;;;;18.37;4.00;;;5.80;96.50;;;;;;5043001;28;20083;-76
2021/03/15 07:56:36;;;;;;;15.10;2.80;;;5.80;96.40;;;;;;5044420;28;20048;-75
2021/03/15 07:59:03;;;;;;;20.80;3.80;;;5.80;96.50;;;;;;5023277;28;20415;-76
2021/03/15 08:01:29;;;;;;;21.77;2.70;;;5.80;96.50;;;;;;5037549;28;20052;-75
2021/03/15 08:03:56;;;;;;;23.50;3.83;;;5.80;96.30;;;;;;5035420;28;20451;-76
2021/03/15 08:06:22;;;;;;;17.17;3.17;;;5.90;96.40;;;;;;5035955;28;20163;-75
2021/03/15 08:08:49;;;;;;;20.17;3.07;;;5.90;96.30;;;;;;5039373;28;20037;-75
2021/03/15 08:11:18;;;;;;;21.00;3.30;;;6.00;96.40;;;;;;5009169;28;20044;-75
2021/03/15 08:13:50;;;;;;;21.27;3.63;;;6.10;96.40;;;;;;5044258;28;20483;-75
2021/03/15 08:16:22;;;;;;;22.07;3.60;;;6.00;96.10;;;;;;5040529;28;20131;-76
2021/03/15 08:18:50;;;;;;;28.33;3.53;;;6.00;96.00;;;;;;5043445;28;20252;-75
2021/03/15 08:21:33;;;;;;;22.03;3.50;;;6.00;96.00;;;;;;5043497;28;20119;-76
2021/03/15 08:24:00;;;;;;;22.57;4.67;;;6.00;96.20;;;;;;5039981;28;20040;-76
2021/03/15 08:26:27;;;;;;;19.17;3.37;;;6.10;96.30;;;;;;5022470;28;20033;-76
2021/03/15 08:28:58;;;;;;;25.70;4.17;;;6.10;96.20;;;;;;5024855;28;20048;-76
2021/03/15 08:31:26;;;;;;;16.07;2.83;;;6.10;96.40;;;;;;5027482;28;20118;-75
2021/03/15 08:33:53;;;;;;;27.27;3.40;;;6.10;96.20;;;;;;5029043;28;20142;-76
2021/03/15 08:36:19;;;;;;;22.47;3.27;;;6.10;96.30;;;;;;5041291;28;20552;-76
2021/03/15 08:38:45;;;;;;;20.40;3.73;;;6.10;96.10;;;;;;5033235;28;20041;-76
2021/03/15 08:41:20;;;;;;;21.13;3.00;;;6.10;96.00;;;;;;5026416;28;20049;-75
2021/03/15 08:43:52;;;;;;;19.13;3.43;;;6.20;96.00;;;;;;5051231;28;20052;-76
2021/03/15 08:46:42;;;;;;;24.73;3.80;;;6.30;95.90;;;;;;5008914;28;20094;-76
2021/03/15 08:49:09;;;;;;;21.33;2.90;;;6.30;95.90;;;;;;5044437;28;20261;-76
2021/03/15 08:51:35;;;;;;;18.73;3.43;;;6.40;95.80;;;;;;5005861;28;20048;-76
2021/03/15 08:54:06;;;;;;;20.23;2.50;;;6.40;95.70;;;;;;5042465;28;20041;-76
2021/03/15 08:56:34;;;;;;;16.97;2.30;;;6.30;95.90;;;;;;5008721;28;20037;-75
2021/03/15 08:59:01;;;;;;;25.80;4.30;;;6.40;95.70;;;;;;5041915;28;20124;-76
2021/03/15 09:01:46;;;;;;;21.33;2.90;;;6.50;95.70;;;;;;5028204;28;20044;-77
2021/03/15 09:04:33;;;;;;;18.93;3.73;;;6.50;95.50;;;;;;5026080;28;20079;-76
2021/03/15 09:07:01;;;;;;;23.17;3.33;;;6.60;95.10;;;;;;5051631;28;20124;-76
2021/03/15 09:09:30;;;;;;;17.03;3.20;;;6.60;95.10;;;;;;5023649;28;20037;-75
2021/03/15 09:12:01;;;;;;;33.27;3.70;;;6.70;94.50;;;;;;5028601;28;20107;-76
2021/03/15 09:14:30;;;;;;;16.23;3.50;;;6.80;94.20;;;;;;5047098;28;20079;-75
2021/03/15 09:17:14;;;;;;;27.30;3.43;;;6.70;94.40;;;;;;5044016;28;20033;-75
2021/03/15 09:19:43;;;;;;;20.90;3.00;;;6.80;94.40;;;;;;5042190;28;20343;-75
2021/03/15 09:22:30;;;;;;;12.70;2.63;;;6.70;94.70;;;;;;5048211;28;20384;-75
2021/03/15 09:24:58;;;;;;;12.60;1.70;;;6.60;93.60;;;;;;5007801;28;20048;-74
2021/03/15 09:27:52;;;;;;;14.20;1.90;;;6.40;94.10;;;;;;5038453;28;20047;-75
2021/03/15 09:30:35;;;;;;;9.53;1.80;;;6.30;94.70;;;;;;5043065;28;20135;-75
2021/03/15 09:33:03;;;;;;;14.43;1.93;;;6.20;94.90;;;;;;5027551;28;20048;-72
2021/03/15 09:35:35;;;;;;;13.70;2.07;;;6.20;95.30;;;;;;5028305;28;20349;-73
2021/03/15 09:38:08;;;;;;;9.77;1.77;;;6.30;95.50;;;;;;5041808;28;20044;-72
2021/03/15 09:40:37;;;;;;;16.43;2.70;;;6.50;95.60;;;;;;5045694;28;20538;-72
2021/03/15 09:43:04;;;;;;;17.53;2.27;;;6.60;95.40;;;;;;5060946;28;20055;-73
2021/03/15 09:45:32;;;;;;;16.97;3.27;;;6.70;95.40;;;;;;5038294;28;20036;-75
2021/03/15 09:47:58;;;;;;;13.53;2.73;;;6.70;95.30;;;;;;5043045;28;20043;-73
2021/03/15 09:50:31;;;;;;;14.87;2.53;;;6.80;95.20;;;;;;5009484;28;20119;-74
2021/03/15 09:53:10;;;;;;;19.50;2.83;;;6.90;95.20;;;;;;5044420;28;20251;-74
2021/03/15 09:55:37;;;;;;;21.67;2.63;;;6.90;94.70;;;;;;5025138;28;20434;-74
2021/03/15 09:58:07;;;;;;;20.00;2.30;;;7.10;94.70;;;;;;5063539;28;20446;-73
2021/03/15 10:00:33;;;;;;;20.90;3.88;;;7.00;94.50;;;;;;5042741;28;20056;-74
2021/03/15 10:03:00;;;;;;;20.10;3.77;;;7.10;94.30;;;;;;5062980;28;20051;-74
2021/03/15 10:05:26;;;;;;;15.93;2.13;;;7.10;94.50;;;;;;5066716;28;20063;-74
2021/03/15 10:07:52;;;;;;;15.17;2.63;;;7.20;94.20;;;;;;5025183;28;20037;-74
2021/03/15 10:10:21;;;;;;;17.27;4.00;;;7.30;93.50;;;;;;5018755;28;20059;-78
2021/03/15 10:13:06;;;;;;;22.63;3.10;;;7.30;93.10;;;;;;5047205;28;20044;-77
2021/03/15 10:15:33;;;;;;;21.77;2.73;;;7.40;92.80;;;;;;5044801;28;20116;-77
2021/03/15 10:17:59;;;;;;;21.80;3.07;;;7.30;93.00;;;;;;5050000;28;20043;-76
2021/03/15 10:20:30;;;;;;;19.47;3.57;;;7.40;93.00;;;;;;5045308;28;20410;-76
2021/03/15 10:22:56;;;;;;;22.80;2.80;;;7.40;92.30;;;;;;5047782;28;20045;-77
2021/03/15 10:25:23;;;;;;;20.70;3.43;;;7.40;92.50;;;;;;5048900;28;20041;-77
2021/03/15 10:27:57;;;;;;;21.10;2.83;;;7.40;92.30;;;;;;5066524;28;20036;-77
2021/03/15 10:30:32;;;;;;;17.87;2.97;;;7.50;92.60;;;;;;5042925;28;20056;-77
2021/03/15 10:32:59;;;;;;;26.57;3.97;;;7.50;92.40;;;;;;5026572;28;20154;-78
2021/03/15 10:35:28;;;;;;;20.63;3.23;;;7.50;92.20;;;;;;5042198;28;20037;-77
2021/03/15 10:37:59;;;;;;;21.03;4.07;;;7.60;92.10;;;;;;5058322;28;20172;-77
2021/03/15 10:40:26;;;;;;;28.30;6.87;;;7.60;91.70;;;;;;5043983;28;20552;-78
2021/03/15 10:42:54;;;;;;;18.00;3.00;;;7.70;92.40;;;;;;5044373;28;20399;-77
2021/03/15 10:45:23;;;;;;;16.03;2.90;;;7.90;91.40;;;;;;5042516;28;20460;-75
2021/03/15 10:48:02;;;;;;;14.33;2.87;;;8.10;89.00;;;;;;5024697;28;20127;-75
2021/03/15 10:50:40;;;;;;;20.20;2.90;;;8.10;89.10;;;;;;5056700;28;20032;-78
2021/03/15 10:53:16;;;;;;;20.73;3.40;;;8.10;89.90;;;;;;5058518;28;20052;-78
2021/03/15 10:55:43;;;;;;;20.03;3.47;;;8.10;90.50;;;;;;5043748;28;20033;-78
2021/03/15 10:58:14;;;;;;;15.97;3.03;;;8.00;89.00;;;;;;5025179;28;20712;-78
2021/03/15 11:00:45;;;;;;;17.63;2.80;;;8.10;88.50;;;;;;5039962;28;20075;-77
2021/03/15 11:03:23;;;;;;;16.97;2.83;;;8.10;88.70;;;;;;5039386;28;20057;-78
2021/03/15 11:06:22;;;;;;;23.67;3.43;;;8.00;89.60;;;;;;5042499;28;20049;-78
2021/03/15 11:08:59;;;;;;;16.50;3.30;;;7.90;89.00;;;;;;5043634;28;20408;-79
2021/03/15 11:11:27;;;;;;;16.43;3.33;;;8.00;88.60;;;;;;5041378;28;20395;-79
2021/03/15 11:13:55;;;;;;;13.90;3.50;;;8.10;85.40;;;;;;5056676;28;20068;-79
2021/03/15 11:16:30;;;;;;;15.83;2.50;;;8.10;83.70;;;;;;5041073;28;20163;-77
2021/03/15 11:19:05;;;;;;;19.60;4.73;;;8.10;85.50;;;;;;5025272;28;20087;-76
2021/03/15 11:21:40;;;;;;;15.87;2.00;;;8.00;86.50;;;;;;5040966;28;20029;-77
2021/03/15 11:24:07;;;;;;;13.97;2.20;;;8.00;85.10;;;;;;5052167;28;20052;-76
2021/03/15 11:26:48;;;;;;;16.87;2.47;;;8.00;84.50;;;;;;5039425;28;20109;-77
2021/03/15 11:29:15;;;;;;;18.83;2.80;;;7.90;85.00;;;;;;5023976;28;20089;-78
2021/03/15 11:31:52;;;;;;;18.67;2.53;;;7.90;86.00;;;;;;5044204;28;20400;-77
2021/03/15 11:34:23;;;;;;;14.43;2.40;;;7.90;87.20;;;;;;5034453;28;20566;-77
2021/03/15 11:36:55;;;;;;;14.40;2.40;;;8.10;86.90;;;;;;5063664;28;20047;-77
2021/03/15 11:39:21;;;;;;;18.53;2.70;;;8.20;86.10;;;;;;5025791;28;20040;-77
2021/03/15 11:41:47;;;;;;;19.17;2.20;;;8.20;84.50;;;;;;5028204;28;20033;-77
2021/03/15 11:44:16;;;;;;;13.57;2.03;;;8.30;85.20;;;;;;5063322;28;20598;-78
2021/03/15 11:46:42;;;;;;;14.90;2.47;;;8.20;83.50;;;;;;5010020;28;20139;-78
2021/03/15 11:49:08;;;;;;;14.43;2.23;;;8.20;84.90;;;;;;5049832;28;20119;-79
2021/03/15 11:51:34;;;;;;;19.17;2.70;;;8.20;84.20;;;;;;5009012;28;20081;-78
2021/03/15 11:54:00;;;;;;;17.57;3.13;;;8.20;85.20;;;;;;5043721;28;20463;-78
2021/03/15 11:56:26;;;;;;;14.23;3.00;;;8.10;85.50;;;;;;5044454;28;20519;-79
2021/03/15 11:58:52;;;;;;;24.00;5.70;;;8.10;86.20;;;;;;5039528;28;20041;-78
2021/03/15 12:01:21;;;;;;;25.47;4.57;;;8.20;84.70;;;;;;5062373;28;20052;-79
2021/03/15 12:03:47;;;;;;;17.30;3.87;;;8.10;85.70;;;;;;5046673;28;20060;-78
2021/03/15 12:06:13;;;;;;;18.43;2.83;;;8.20;86.70;;;;;;5041785;28;20063;-75
2021/03/15 12:08:39;;;;;;;19.40;3.43;;;8.20;86.40;;;;;;5029042;28;20458;-75
2021/03/15 12:11:05;;;;;;;17.83;3.57;;;8.20;86.30;;;;;;5049287;28;20048;-75
2021/03/15 12:13:31;;;;;;;20.33;3.23;;;8.40;86.20;;;;;;5049902;28;20506;-76
2021/03/15 12:15:57;;;;;;;13.07;2.10;;;8.60;87.70;;;;;;5044646;28;20047;-75
2021/03/15 12:18:24;;;;;;;12.40;2.17;;;8.70;82.20;;;;;;5048556;28;20043;-75
2021/03/15 12:20:50;;;;;;;14.30;2.57;;;8.70;81.60;;;;;;5028641;28;20040;-80
2021/03/15 12:23:16;;;;;;;16.60;3.37;;;8.80;80.50;;;;;;5048720;28;20032;-80
2021/03/15 12:25:41;;;;;;;20.53;3.00;;;8.70;80.80;;;;;;5071718;28;20037;-79
2021/03/15 12:28:09;;;;;;;18.27;3.50;;;8.60;82.20;;;;;;5031421;28;20483;-79
2021/03/15 12:30:37;;;;;;;19.80;3.03;;;8.60;82.20;;;;;;5017955;28;20049;-79
2021/03/15 12:33:04;;;;;;;15.57;2.67;;;8.60;83.40;;;;;;5038319;28;20052;-78
2021/03/15 12:35:30;;;;;;;18.40;2.90;;;8.60;82.70;;;;;;5042493;28;20061;-79
2021/03/15 12:37:56;;;;;;;14.80;2.40;;;8.60;83.70;;;;;;5031751;28;20040;-79
2021/03/15 12:40:23;;;;;;;22.37;2.97;;;8.60;83.60;;;;;;5025499;28;20507;-79
2021/03/15 12:42:49;;;;;;;18.77;3.40;;;8.60;84.20;;;;;;5036007;28;20041;-80
2021/03/15 12:45:16;;;;;;;16.70;3.57;;;8.60;82.90;;;;;;5016565;28;20106;-79
2021/03/15 12:47:42;;;;;;;21.80;3.07;;;8.70;83.70;;;;;;5022407;28;20040;-79
2021/03/15 12:50:09;;;;;;;18.73;2.80;;;8.90;82.80;;;;;;5009920;28;20099;-78
2021/03/15 12:52:35;;;;;;;14.33;2.70;;;9.00;81.40;;;;;;5006198;28;20048;-78
2021/03/15 12:55:01;;;;;;;20.77;4.47;;;9.00;79.70;;;;;;5030277;28;20045;-79
2021/03/15 12:57:27;;;;;;;15.83;5.00;;;9.00;80.60;;;;;;5046193;28;20086;-78
2021/03/15 12:59:52;;;;;;;17.13;3.50;;;9.10;80.90;;;;;;5031226;28;20086;-79
2021/03/15 13:02:20;;;;;;;16.53;2.40;;;9.20;79.80;;;;;;5056626;28;20484;-80
2021/03/15 13:04:46;;;;;;;13.03;2.00;;;9.10;78.60;;;;;;5029950;28;20131;-79